createdAt,value
2022-09-13T00:00:55.569Z,20.30
2022-09-13T00:03:25.217Z,23.13
2022-09-13T00:05:53.715Z,19.73
2022-09-13T00:08:22.024Z,20.67
2022-09-13T00:10:50.310Z,28.40
2022-09-13T00:13:18.973Z,22.63
2022-09-13T00:15:49.021Z,19.93
2022-09-13T00:18:18.722Z,19.60
2022-09-13T00:20:48.134Z,18.77
2022-09-13T00:23:16.233Z,18.47
2022-09-13T00:25:44.296Z,22.40
2022-09-13T00:28:12.393Z,19.40
2022-09-13T00:30:40.478Z,17.97
2022-09-13T00:33:08.934Z,18.40
2022-09-13T00:35:37.082Z,17.63
2022-09-13T00:38:06.556Z,16.50
2022-09-13T00:40:38.818Z,19.87
2022-09-13T00:43:13.297Z,18.83
2022-09-13T00:45:41.511Z,17.90
2022-09-13T00:48:15.217Z,17.93
2022-09-13T00:50:45.793Z,20.77
2022-09-13T00:53:20.782Z,20.90
2022-09-13T00:55:53.425Z,21.73
2022-09-13T00:58:24.384Z,26.23
2022-09-13T01:00:54.462Z,18.63
2022-09-13T01:03:25.730Z,21.43
2022-09-13T01:05:58.090Z,18.50
2022-09-13T01:08:29.367Z,20.30
2022-09-13T01:11:00.015Z,20.77
2022-09-13T01:13:31.977Z,17.37
2022-09-13T01:16:00.647Z,20.43
2022-09-13T01:18:28.772Z,24.17
2022-09-13T01:21:25.227Z,29.03
2022-09-13T01:24:28.402Z,23.73
2022-09-13T01:27:24.893Z,25.67
2022-09-13T01:30:15.945Z,33.40
2022-09-13T01:33:18.481Z,23.83
2022-09-13T01:35:58.096Z,28.77
2022-09-13T01:38:49.519Z,33.33
2022-09-13T01:41:33.678Z,27.23
2022-09-13T01:44:11.675Z,29.10
2022-09-13T01:46:49.708Z,29.17
2022-09-13T01:49:22.286Z,22.53
2022-09-13T01:51:55.490Z,31.67
2022-09-13T01:54:34.190Z,29.77
2022-09-13T01:57:05.538Z,24.30
2022-09-13T01:59:44.482Z,26.40
2022-09-13T02:02:21.668Z,26.70
2022-09-13T02:04:54.810Z,23.47
2022-09-13T02:07:27.461Z,27.07
2022-09-13T02:10:03.565Z,25.30
2022-09-13T02:12:35.782Z,26.33
2022-09-13T02:15:09.671Z,26.23
2022-09-13T02:17:41.725Z,26.37
2022-09-13T02:20:14.145Z,24.57
2022-09-13T02:22:49.438Z,23.17
2022-09-13T02:25:20.474Z,27.03
2022-09-13T02:27:50.553Z,23.83
2022-09-13T02:30:20.443Z,24.00
2022-09-13T02:32:55.342Z,25.33
2022-09-13T02:35:29.492Z,27.13
2022-09-13T02:38:03.535Z,22.73
2022-09-13T02:40:38.541Z,19.77
2022-09-13T02:43:09.855Z,17.13
2022-09-13T02:45:46.840Z,18.07
2022-09-13T02:48:22.208Z,22.80
2022-09-13T02:51:00.290Z,19.23
2022-09-13T02:53:37.028Z,19.13
2022-09-13T02:56:17.008Z,27.07
2022-09-13T02:58:48.181Z,19.63
2022-09-13T03:01:16.573Z,20.60
2022-09-13T03:03:46.316Z,21.43
2022-09-13T03:06:14.863Z,23.23
2022-09-13T03:08:42.993Z,23.90
2022-09-13T03:11:21.233Z,19.23
2022-09-13T03:14:03.934Z,20.30
2022-09-13T03:16:44.481Z,17.43
2022-09-13T03:19:32.695Z,22.03
2022-09-13T03:22:15.390Z,15.57
2022-09-13T03:24:51.384Z,13.70
2022-09-13T03:27:29.547Z,12.10
2022-09-13T03:30:03.909Z,12.57
2022-09-13T03:32:43.019Z,14.97
2022-09-13T03:35:19.564Z,15.77
2022-09-13T03:37:55.981Z,13.43
2022-09-13T03:40:30.181Z,17.27
2022-09-13T03:43:05.409Z,18.40
2022-09-13T03:45:38.629Z,14.47
2022-09-13T03:48:08.395Z,25.30
2022-09-13T03:50:38.709Z,26.20
2022-09-13T03:53:10.307Z,18.17
2022-09-13T03:55:41.623Z,19.83
2022-09-13T03:58:12.817Z,13.73
2022-09-13T04:00:41.298Z,26.67
2022-09-13T04:03:10.108Z,20.27
2022-09-13T04:05:39.973Z,18.43
2022-09-13T04:08:08.906Z,22.87
2022-09-13T04:10:38.657Z,20.77
2022-09-13T04:13:06.798Z,19.77
2022-09-13T04:15:34.910Z,16.50
2022-09-13T04:18:03.001Z,16.30
2022-09-13T04:20:31.324Z,16.27
2022-09-13T04:23:00.795Z,18.13
2022-09-13T04:25:29.028Z,19.73
2022-09-13T04:27:59.913Z,15.67
2022-09-13T04:30:28.546Z,12.10
2022-09-13T04:32:59.629Z,15.83
2022-09-13T04:35:28.903Z,16.57
2022-09-13T04:37:57.889Z,16.87
2022-09-13T04:40:27.513Z,15.30
2022-09-13T04:42:55.723Z,15.07
2022-09-13T04:45:24.064Z,17.20
2022-09-13T04:47:53.894Z,17.63
2022-09-13T04:50:22.818Z,19.77
2022-09-13T04:52:51.963Z,25.47
2022-09-13T04:55:20.089Z,19.80
2022-09-13T04:57:53.619Z,19.73
2022-09-13T05:00:21.871Z,22.27
2022-09-13T05:02:50.126Z,31.87
2022-09-13T05:05:18.327Z,23.33
2022-09-13T05:07:46.468Z,28.60
2022-09-13T05:10:18.932Z,22.50
2022-09-13T05:12:49.099Z,28.63
2022-09-13T05:15:17.742Z,21.17
2022-09-13T05:17:45.886Z,26.43
2022-09-13T05:20:14.032Z,29.07
2022-09-13T05:22:42.145Z,22.00
2022-09-13T05:25:10.735Z,22.17
2022-09-13T05:27:38.830Z,21.90
2022-09-13T05:30:09.285Z,21.93
2022-09-13T05:32:37.502Z,22.30
2022-09-13T05:35:06.180Z,23.97
2022-09-13T05:37:34.296Z,21.77
2022-09-13T05:40:17.831Z,18.17
2022-09-13T05:42:45.960Z,19.80
2022-09-13T05:45:15.564Z,19.57
2022-09-13T05:47:43.692Z,21.90
2022-09-13T05:50:22.950Z,22.07
2022-09-13T05:52:59.879Z,23.87
2022-09-13T05:55:27.971Z,18.63
2022-09-13T05:57:56.080Z,21.47
2022-09-13T06:00:26.030Z,22.67
2022-09-13T06:02:54.179Z,19.13
2022-09-13T06:05:22.315Z,26.77
2022-09-13T06:07:50.386Z,23.90
2022-09-13T06:10:18.619Z,45.00
2022-09-13T06:12:47.103Z,46.47
2022-09-13T06:15:15.641Z,53.30
2022-09-13T06:17:45.134Z,77.40
2022-09-13T06:20:13.257Z,130.27
2022-09-13T06:22:41.355Z,119.50
2022-09-13T06:25:10.774Z,123.73
2022-09-13T06:27:38.868Z,127.43
2022-09-13T06:30:08.933Z,124.40
2022-09-13T06:32:37.378Z,123.73
2022-09-13T06:35:08.068Z,120.43
2022-09-13T06:37:36.169Z,109.47
2022-09-13T06:40:06.460Z,118.43
2022-09-13T06:42:35.667Z,105.60
2022-09-13T06:45:04.124Z,108.73
2022-09-13T06:47:32.308Z,100.77
2022-09-13T06:50:00.949Z,78.37
2022-09-13T06:52:30.508Z,76.20
2022-09-13T06:54:58.900Z,75.37
2022-09-13T06:57:30.853Z,70.67
2022-09-13T06:59:59.080Z,62.03
2022-09-13T07:02:27.273Z,49.47
2022-09-13T07:04:55.406Z,43.23
2022-09-13T07:07:23.513Z,40.03
2022-09-13T07:09:53.006Z,38.37
2022-09-13T07:12:21.184Z,38.60
2022-09-13T07:14:49.273Z,42.40
2022-09-13T07:17:17.439Z,36.03
2022-09-13T07:19:45.572Z,32.10
2022-09-13T07:22:13.653Z,37.53
2022-09-13T07:24:41.770Z,31.33
2022-09-13T07:27:11.369Z,23.43
2022-09-13T07:29:39.496Z,23.07
2022-09-13T07:32:07.634Z,19.50
2022-09-13T07:34:35.759Z,22.33
2022-09-13T07:37:03.890Z,21.13
2022-09-13T07:39:32.052Z,25.07
2022-09-13T07:42:00.146Z,20.10
2022-09-13T07:44:29.593Z,14.70
2022-09-13T07:46:57.671Z,15.20
2022-09-13T07:49:25.869Z,12.67
2022-09-13T07:51:54.001Z,10.93
2022-09-13T07:54:22.231Z,9.13
2022-09-13T07:56:51.863Z,7.90
2022-09-13T07:59:20.647Z,7.27
2022-09-13T08:01:52.058Z,7.20
2022-09-13T08:04:24.874Z,7.90
2022-09-13T08:06:53.054Z,11.00
2022-09-13T08:09:21.218Z,6.23
2022-09-13T08:11:52.686Z,6.47
2022-09-13T08:14:22.934Z,8.20
2022-09-13T08:16:55.615Z,9.13
2022-09-13T08:19:23.775Z,8.33
2022-09-13T08:21:51.856Z,7.47
2022-09-13T08:24:22.477Z,4.83
2022-09-13T08:26:52.048Z,3.90
2022-09-13T08:29:20.602Z,6.57
2022-09-13T08:31:48.814Z,5.03
2022-09-13T08:34:21.241Z,3.63
2022-09-13T08:36:49.385Z,4.13
2022-09-13T08:39:17.592Z,5.20
2022-09-13T08:42:12.933Z,5.17
2022-09-13T08:44:47.198Z,5.50
2022-09-13T08:54:25.847Z,3.17
2022-09-13T08:57:01.083Z,3.93
2022-09-13T08:59:46.443Z,3.77
2022-09-13T09:02:32.014Z,6.43
2022-09-13T09:05:06.875Z,2.70
2022-09-13T09:07:41.647Z,3.00
2022-09-13T09:10:17.028Z,5.03
2022-09-13T09:12:48.358Z,3.90
2022-09-13T09:15:21.131Z,3.47
2022-09-13T09:17:56.814Z,2.93
2022-09-13T09:20:31.687Z,2.80
2022-09-13T09:23:06.760Z,6.37
2022-09-13T09:25:35.827Z,2.73
2022-09-13T09:28:13.355Z,3.20
2022-09-13T09:30:47.182Z,3.10
2022-09-13T09:33:29.676Z,2.43
2022-09-13T09:36:05.681Z,3.70
2022-09-13T09:38:39.770Z,4.20
2022-09-13T09:41:22.744Z,3.50
2022-09-13T09:43:57.667Z,2.70
2022-09-13T09:46:32.013Z,3.17
2022-09-13T09:49:28.715Z,2.57
2022-09-13T09:52:00.341Z,3.40
2022-09-13T09:54:31.572Z,2.77
2022-09-13T09:56:59.975Z,4.23
2022-09-13T09:59:31.205Z,3.73
2022-09-13T10:02:00.336Z,4.33
2022-09-13T10:04:30.067Z,5.47
2022-09-13T10:07:19.917Z,3.17
2022-09-13T10:10:01.370Z,2.67
2022-09-13T10:12:34.031Z,3.40
2022-09-13T10:15:08.299Z,3.13
2022-09-13T10:17:37.063Z,4.27
2022-09-13T10:20:23.418Z,6.87
2022-09-13T10:23:17.729Z,2.80
2022-09-13T10:25:58.721Z,2.40
2022-09-13T10:28:27.633Z,4.03
2022-09-13T10:30:59.905Z,3.93
2022-09-13T10:33:31.576Z,3.67
2022-09-13T10:36:04.404Z,3.77
2022-09-13T10:38:35.132Z,7.67
2022-09-13T10:41:07.501Z,4.50
2022-09-13T10:43:36.416Z,6.87
2022-09-13T10:46:06.994Z,2.77
2022-09-13T10:48:47.641Z,5.13
2022-09-13T10:51:34.337Z,2.20
2022-09-13T10:54:16.262Z,3.97
2022-09-13T10:56:46.273Z,5.60
2022-09-13T10:59:22.602Z,3.10
2022-09-13T11:02:23.702Z,5.03
2022-09-13T11:05:06.424Z,3.83
2022-09-13T11:07:57.669Z,4.40
2022-09-13T11:10:32.688Z,4.10
2022-09-13T11:13:09.005Z,4.73
2022-09-13T11:15:50.963Z,2.33
2022-09-13T11:18:39.177Z,6.50
2022-09-13T11:21:19.615Z,2.33
2022-09-13T11:24:11.601Z,3.07
2022-09-13T11:26:58.799Z,2.57
2022-09-13T11:29:43.332Z,2.33
2022-09-13T11:32:25.155Z,2.73
2022-09-13T11:35:09.330Z,3.07
2022-09-13T11:37:51.566Z,3.50
2022-09-13T11:40:33.671Z,3.80
2022-09-13T11:43:17.758Z,4.27
2022-09-13T11:45:58.826Z,4.07
2022-09-13T11:48:44.339Z,3.67
2022-09-13T11:51:25.194Z,2.97
2022-09-13T11:54:05.596Z,3.53
2022-09-13T11:56:37.847Z,2.93
2022-09-13T11:59:15.813Z,4.60
2022-09-13T12:01:50.551Z,3.10
2022-09-13T12:04:25.613Z,6.03
2022-09-13T12:06:58.749Z,5.33
2022-09-13T12:09:30.588Z,6.33
2022-09-13T12:12:05.069Z,4.47
2022-09-13T12:14:43.770Z,5.30
2022-09-13T12:17:25.646Z,4.73
2022-09-13T12:19:57.612Z,4.63
2022-09-13T12:22:31.027Z,4.87
2022-09-13T12:25:03.845Z,8.90
2022-09-13T12:27:40.105Z,3.60
2022-09-13T12:30:16.246Z,3.50
2022-09-13T12:32:47.457Z,3.13
2022-09-13T12:35:25.675Z,4.17
2022-09-13T12:38:11.683Z,4.60
2022-09-13T12:40:54.977Z,6.33
2022-09-13T12:43:53.497Z,4.13
2022-09-13T12:46:36.739Z,3.57
2022-09-13T12:49:31.103Z,4.87
2022-09-13T12:52:17.387Z,10.23
2022-09-13T12:55:46.504Z,3.20
2022-09-13T12:58:42.954Z,7.73
2022-09-13T13:01:16.525Z,5.43
2022-09-13T13:03:51.557Z,5.73
2022-09-13T13:06:29.558Z,3.50
2022-09-13T13:09:00.234Z,6.40
2022-09-13T13:11:31.409Z,5.90
2022-09-13T13:14:03.514Z,4.83
2022-09-13T13:16:34.338Z,6.10
2022-09-13T13:19:03.542Z,5.80
2022-09-13T13:21:39.190Z,7.27
2022-09-13T13:24:39.419Z,7.33
2022-09-13T13:27:48.698Z,11.67
2022-09-13T13:30:55.245Z,7.33
2022-09-13T13:33:27.748Z,14.50
2022-09-13T13:35:56.298Z,17.80
2022-09-13T13:38:47.718Z,11.17
2022-09-13T13:41:40.666Z,10.93
2022-09-13T13:44:59.256Z,10.93
2022-09-13T13:48:11.008Z,4.70
2022-09-13T13:51:20.357Z,4.60
2022-09-13T13:53:53.898Z,5.57
2022-09-13T13:56:48.533Z,3.97
2022-09-13T13:59:23.095Z,5.67
2022-09-13T14:01:57.778Z,5.50
2022-09-13T14:05:01.094Z,6.57
2022-09-13T14:07:54.169Z,6.53
2022-09-13T14:10:27.652Z,7.77
2022-09-13T14:13:13.909Z,4.90
2022-09-13T14:15:54.610Z,7.67
2022-09-13T14:18:52.316Z,5.20
2022-09-13T14:21:26.714Z,5.20
2022-09-13T14:24:10.687Z,4.83
2022-09-13T14:26:41.143Z,5.23
2022-09-13T14:29:10.259Z,4.27
2022-09-13T14:31:39.091Z,5.53
2022-09-13T14:34:07.272Z,4.77
2022-09-13T14:36:36.243Z,3.90
2022-09-13T14:39:04.536Z,5.23
2022-09-13T14:41:34.710Z,5.23
2022-09-13T14:44:28.438Z,6.07
2022-09-13T14:47:02.773Z,7.37
2022-09-13T14:49:36.399Z,6.13
2022-09-13T14:52:10.119Z,7.67
2022-09-13T14:54:41.715Z,5.10
2022-09-13T14:57:18.501Z,6.97
2022-09-13T14:59:52.067Z,7.53
2022-09-13T15:02:22.318Z,11.53
2022-09-13T15:04:53.210Z,10.67
2022-09-13T15:07:28.758Z,11.10
2022-09-13T15:09:59.657Z,7.00
2022-09-13T15:12:29.967Z,4.87
2022-09-13T15:15:32.778Z,6.60
2022-09-13T15:18:02.950Z,20.47
2022-09-13T15:20:45.113Z,13.60
2022-09-13T15:23:16.657Z,11.63
2022-09-13T15:25:52.282Z,9.53
2022-09-13T15:28:26.850Z,7.90
2022-09-13T15:30:59.003Z,7.90
2022-09-13T15:33:30.909Z,6.67
2022-09-13T15:36:28.656Z,6.77
2022-09-13T15:39:02.319Z,6.97
2022-09-13T15:41:32.634Z,4.87
2022-09-13T15:44:02.325Z,5.40
2022-09-13T15:46:32.617Z,5.50
2022-09-13T15:49:03.229Z,8.47
2022-09-13T15:51:33.469Z,16.73
2022-09-13T15:54:11.983Z,28.00
2022-09-13T15:56:43.470Z,29.33
2022-09-13T15:59:15.307Z,15.27
2022-09-13T16:01:45.803Z,15.87
2022-09-13T16:04:14.204Z,10.80
2022-09-13T16:06:42.844Z,10.33
2022-09-13T16:09:19.206Z,7.70
2022-09-13T16:11:48.315Z,8.40
2022-09-13T16:14:17.009Z,8.50
2022-09-13T16:16:47.080Z,11.10
2022-09-13T16:19:17.186Z,7.77
2022-09-13T16:21:45.903Z,7.47
2022-09-13T16:24:14.124Z,11.20
2022-09-13T16:26:43.121Z,6.97
2022-09-13T16:29:12.661Z,8.03
2022-09-13T16:31:41.103Z,8.10
2022-09-13T16:34:10.779Z,6.67
2022-09-13T16:36:38.888Z,6.43
2022-09-13T16:39:07.213Z,8.87
2022-09-13T16:41:35.479Z,9.33
2022-09-13T16:44:05.099Z,10.17
2022-09-13T16:46:33.662Z,8.43
2022-09-13T16:49:01.910Z,11.17
2022-09-13T16:51:31.598Z,10.43
2022-09-13T16:54:00.540Z,10.87
2022-09-13T16:56:30.242Z,7.27
2022-09-13T16:58:58.470Z,8.63
2022-09-13T17:01:28.616Z,8.13
2022-09-13T17:03:57.434Z,6.43
2022-09-13T17:06:27.565Z,7.90
2022-09-13T17:09:01.180Z,15.03
2022-09-13T17:11:32.656Z,13.97
2022-09-13T17:14:00.940Z,10.73
2022-09-13T17:16:31.361Z,10.77
2022-09-13T17:19:02.134Z,8.97
2022-09-13T17:21:31.076Z,10.03
2022-09-13T17:24:02.208Z,8.83
2022-09-13T17:26:30.646Z,7.93
2022-09-13T17:28:58.966Z,10.03
2022-09-13T17:31:27.156Z,9.77
2022-09-13T17:33:58.017Z,10.63
2022-09-13T17:36:26.196Z,12.10
2022-09-13T17:38:57.218Z,9.57
2022-09-13T17:41:27.654Z,10.90
2022-09-13T17:43:56.082Z,12.70
2022-09-13T17:46:27.757Z,10.97
2022-09-13T17:48:58.338Z,9.43
2022-09-13T17:51:28.150Z,11.07
2022-09-13T17:53:58.728Z,11.77
2022-09-13T17:56:30.753Z,11.73
2022-09-13T17:59:09.321Z,15.87
2022-09-13T18:01:39.972Z,11.27
2022-09-13T18:04:09.699Z,14.43
2022-09-13T18:06:40.647Z,12.43
2022-09-13T18:09:09.925Z,11.43
2022-09-13T18:11:40.045Z,13.50
2022-09-13T18:14:08.669Z,15.57
2022-09-13T18:16:38.076Z,15.67
2022-09-13T18:19:06.523Z,9.10
2022-09-13T18:21:34.812Z,13.37
2022-09-13T18:24:03.540Z,18.90
2022-09-13T18:26:32.534Z,29.83
2022-09-13T18:29:04.779Z,29.00
2022-09-13T18:31:34.859Z,32.77
2022-09-13T18:34:05.372Z,17.27
2022-09-13T18:36:36.576Z,21.27
2022-09-13T18:39:06.460Z,17.43
2022-09-13T18:41:37.310Z,14.43
2022-09-13T18:44:06.886Z,12.40
2022-09-13T18:46:35.944Z,13.93
2022-09-13T18:49:05.181Z,12.90
2022-09-13T18:51:35.026Z,11.57
2022-09-13T18:54:04.599Z,11.97
2022-09-13T18:56:33.868Z,16.53
2022-09-13T18:59:04.034Z,17.27
2022-09-13T19:01:35.123Z,16.17
2022-09-13T19:04:05.436Z,12.90
2022-09-13T19:06:35.536Z,13.43
2022-09-13T19:09:07.433Z,12.33
2022-09-13T19:11:52.281Z,9.57
2022-09-13T19:14:23.907Z,12.30
2022-09-13T19:16:54.966Z,8.77
2022-09-13T19:19:23.181Z,11.77
2022-09-13T19:21:51.281Z,14.00
2022-09-13T19:24:20.869Z,10.67
2022-09-13T19:26:51.873Z,15.83
2022-09-13T19:29:23.114Z,9.80
2022-09-13T19:31:55.835Z,10.33
2022-09-13T19:34:24.701Z,11.90
2022-09-13T19:36:58.225Z,11.60
2022-09-13T19:39:30.054Z,10.97
2022-09-13T19:41:59.921Z,11.43
2022-09-13T19:44:28.585Z,12.30
2022-09-13T19:49:49.620Z,10.30
2022-09-13T19:52:17.995Z,10.07
2022-09-13T19:54:46.195Z,8.53
2022-09-13T19:57:14.368Z,8.67
2022-09-13T19:59:42.492Z,9.57
2022-09-13T20:02:12.276Z,10.63
2022-09-13T20:04:41.610Z,10.00
2022-09-13T20:07:12.307Z,10.50
2022-09-13T20:09:42.343Z,10.00
2022-09-13T20:12:11.415Z,10.27
2022-09-13T20:14:39.634Z,13.03
2022-09-13T20:17:07.961Z,12.93
2022-09-13T20:19:41.883Z,15.80
2022-09-13T20:22:11.941Z,14.33
2022-09-13T20:24:40.306Z,9.83
2022-09-13T20:27:08.397Z,10.30
2022-09-13T20:29:36.525Z,9.63
2022-09-13T20:32:04.731Z,11.20
2022-09-13T20:34:32.939Z,10.23
2022-09-13T20:37:02.451Z,9.37
2022-09-13T20:39:30.732Z,11.70
2022-09-13T20:41:59.018Z,11.73
2022-09-13T20:44:27.516Z,11.07
2022-09-13T20:46:55.644Z,12.37
2022-09-13T20:49:23.771Z,9.37
2022-09-13T20:51:52.161Z,9.87
2022-09-13T20:54:21.689Z,11.53
2022-09-13T20:56:49.851Z,10.90
2022-09-13T20:59:18.110Z,12.33
2022-09-13T21:01:46.433Z,12.40
2022-09-13T21:04:14.683Z,11.23
2022-09-13T21:06:57.673Z,11.63
2022-09-13T21:09:27.411Z,10.53
2022-09-13T21:11:55.922Z,11.93
2022-09-13T21:14:24.091Z,9.13
2022-09-13T21:16:52.218Z,13.97
2022-09-13T21:19:20.530Z,11.57
2022-09-13T21:21:48.687Z,12.40
2022-09-13T21:24:16.936Z,16.13
2022-09-13T21:26:46.423Z,12.97
2022-09-13T21:29:14.813Z,15.37
2022-09-13T21:31:42.989Z,13.23
2022-09-13T21:34:15.919Z,11.67
2022-09-13T21:36:45.261Z,13.77
2022-09-13T21:39:13.614Z,13.83
2022-09-13T21:41:42.201Z,14.97
2022-09-13T21:44:12.096Z,13.57
2022-09-13T21:46:41.341Z,14.50
2022-09-13T21:49:11.470Z,13.17
2022-09-13T21:51:41.333Z,13.40
2022-09-13T21:54:12.356Z,14.83
2022-09-13T21:56:42.485Z,15.87
2022-09-13T21:59:15.537Z,13.97
2022-09-13T22:01:46.749Z,15.60
2022-09-13T22:04:18.250Z,14.60
2022-09-13T22:06:47.831Z,13.90
2022-09-13T22:09:16.789Z,15.53
2022-09-13T22:11:47.284Z,21.07
2022-09-13T22:14:18.609Z,15.70
2022-09-13T22:16:47.670Z,17.13
2022-09-13T22:19:17.784Z,16.60
2022-09-13T22:21:49.005Z,15.40
2022-09-13T22:24:19.193Z,15.63
2022-09-13T22:26:49.870Z,17.07
2022-09-13T22:29:20.472Z,15.57
2022-09-13T22:31:50.498Z,17.47
2022-09-13T22:34:20.875Z,17.03
2022-09-13T22:36:49.254Z,16.87
2022-09-13T22:39:18.539Z,16.03
2022-09-13T22:41:47.113Z,14.13
2022-09-13T22:44:15.841Z,14.33
2022-09-13T22:46:47.234Z,17.00
2022-09-13T22:49:17.515Z,15.50
2022-09-13T22:51:46.367Z,14.87
2022-09-13T22:54:15.366Z,14.83
2022-09-13T22:56:43.798Z,14.00
2022-09-13T22:59:14.626Z,12.93
2022-09-13T23:01:43.137Z,12.17
2022-09-13T23:04:13.190Z,11.73
2022-09-13T23:06:43.757Z,13.03
2022-09-13T23:09:13.983Z,11.07
2022-09-13T23:11:42.528Z,11.87
2022-09-13T23:14:12.514Z,12.20
2022-09-13T23:16:43.357Z,11.53
2022-09-13T23:19:14.851Z,7.67
2022-09-13T23:21:43.743Z,9.67
2022-09-13T23:24:14.485Z,9.83
2022-09-13T23:26:43.243Z,10.37
2022-09-13T23:29:14.799Z,9.10
2022-09-13T23:31:43.706Z,9.07
2022-09-13T23:34:14.321Z,9.17
2022-09-13T23:36:44.155Z,9.33
2022-09-13T23:39:17.400Z,8.27
2022-09-13T23:41:46.628Z,10.23
2022-09-13T23:44:15.206Z,8.50
2022-09-13T23:46:43.459Z,9.33
2022-09-13T23:49:13.012Z,10.83
2022-09-13T23:51:41.425Z,11.67
2022-09-13T23:54:09.753Z,10.93
2022-09-13T23:56:37.841Z,12.53
2022-09-13T23:59:06.744Z,9.30
